Latest Weather Observations for Spring Bay

IDT60801

Issued at 2:05 pm EDT Sunday 26 October 2014 (issued every 30 minutes, with the page automatically refreshed every 10 minutes)

About weather observations | Map of weather stations | Latest weather observations for TAS | Other Formats
Station Details ID: 092133 Name: SPRING BAY NTC AWS Lat: -42.55 Lon: 147.93 Height: 0.0 m
Data from the previous 72 hours. | See also: Recent months for locations in Tasmania
Date/Time
EDT
Temp
°C
App
Temp
°C
Dew
Point
Rel
Hum
%
Delta-T
°C
Wind Press
QNH
hPa
Press
MSL
hPa
Rain
since 9 am
mm
Dir
 
Spd
km/h
Gust
km/h
Spd
kts
Gust
kts
26/02:00pm 12.5 - - - - NE 19 33 10 18 1013.6 1013.6 -
26/01:30pm 12.4 - - - - NE 22 33 12 18 1013.7 1013.7 -
26/01:00pm 12.0 - - - - NE 20 32 11 17 1013.9 1013.9 -
26/12:30pm 11.4 - - - - NE 24 33 13 18 1014.2 1014.2 -
26/12:00pm 11.5 - - - - ENE 15 28 8 15 1014.5 1014.5 -
26/11:30am 11.4 - - - - ENE 24 35 13 19 1014.5 1014.5 -
26/11:00am 11.2 - - - - ENE 24 35 13 19 1014.7 1014.7 -
26/10:30am 11.1 - - - - ENE 20 32 11 17 1014.8 1014.8 -
26/10:00am 11.2 - - - - E 19 30 10 16 1014.9 1014.9 -
26/09:30am 10.9 - - - - E 26 35 14 19 1015.1 1015.1 -
26/09:00am 10.7 - - - - E 24 30 13 16 1015.1 1015.1 -
26/08:30am 10.9 - - - - E 19 30 10 16 1014.9 1014.9 -
26/08:00am 10.8 - - - - E 11 20 6 11 1014.8 1014.8 -
26/07:30am 10.9 - - - - E 9 13 5 7 1014.8 1014.8 -
26/07:00am 10.8 - - - - SE 17 20 9 11 1014.8 1014.8 -
26/06:30am 10.6 - - - - SE 19 22 10 12 1014.7 1014.7 -
26/06:00am 10.6 - - - - SE 22 24 12 13 1014.7 1014.7 -
26/05:30am 10.5 - - - - ESE 17 22 9 12 1014.6 1014.6 -
26/05:00am 10.7 - - - - SE 11 13 6 7 1014.7 1014.7 -
26/04:30am 10.7 - - - - SE 15 19 8 10 1014.8 1014.8 -
26/04:00am 10.6 - - - - SE 15 19 8 10 1015.0 1015.0 -
26/03:30am 10.6 - - - - SE 17 20 9 11 1015.2 1015.2 -
26/03:00am 10.4 - - - - ENE 7 11 4 6 1015.2 1015.2 -
26/02:30am 10.2 - - - - ENE 6 9 3 5 1015.6 1015.6 -
26/02:00am 10.3 - - - - E 7 13 4 7 1016.0 1016.0 -
26/01:30am 10.3 - - - - ESE 11 15 6 8 1017.1 1017.1 -
26/01:00am 10.5 - - - - SE 7 9 4 5 1017.6 1017.6 -
26/12:30am 10.8 - - - - S 6 7 3 4 1017.8 1017.8 -
26/12:00am 10.7 - - - - N 2 4 1 2 1017.5 1017.5 -
 
Date/Time
EDT
Temp
°C
App
Temp
°C
Dew
Point
Rel
Hum
%
Delta-T
°C
Wind Press
QNH
hPa
Press
MSL
hPa
Rain
since 9 am
mm
Dir
 
Spd
km/h
Gust
km/h
Spd
kts
Gust
kts
25/11:30pm 10.8 - - - - NE 4 7 2 4 1017.2 1017.2 -
25/11:00pm 11.1 - - - - E 11 15 6 8 1017.4 1017.4 -
25/10:30pm 11.8 - - - - ESE 13 19 7 10 1018.0 1018.0 -
25/10:00pm 12.0 - - - - ESE 20 24 11 13 1017.8 1017.8 -
25/09:30pm 12.1 - - - - ESE 20 24 11 13 1017.7 1017.7 -
25/09:00pm 12.1 - - - - SE 20 24 11 13 1018.0 1018.0 -
25/08:30pm 12.2 - - - - SE 22 28 12 15 1017.9 1017.9 -
25/08:00pm 12.2 - - - - ESE 20 32 11 17 1017.8 1017.8 -
25/07:30pm 12.4 - - - - ESE 28 33 15 18 1017.3 1017.3 -
25/07:00pm 12.5 - - - - SE 28 32 15 17 1017.0 1017.0 -
25/06:30pm 12.7 - - - - SE 28 32 15 17 1016.8 1016.8 -
25/06:00pm 12.9 - - - - ESE 24 32 13 17 1016.6 1016.6 -
25/05:30pm 13.3 - - - - ESE 17 26 9 14 1016.5 1016.5 -
25/05:00pm 13.5 - - - - ESE 19 26 10 14 1016.3 1016.3 -
25/04:30pm 14.1 - - - - ESE 19 28 10 15 1016.2 1016.2 -
25/04:00pm 14.0 - - - - ESE 28 32 15 17 1016.2 1016.2 -
25/03:30pm 14.4 - - - - SE 30 33 16 18 1016.0 1016.0 -
25/03:00pm 14.6 - - - - ESE 26 32 14 17 1015.9 1015.9 -
25/02:30pm 15.4 - - - - ESE 19 26 10 14 1015.9 1015.9 -
25/02:00pm 15.5 - - - - NE 13 19 7 10 1015.8 1015.8 -
25/01:30pm 15.2 - - - - NNE 17 24 9 13 1015.4 1015.4 -
25/01:00pm 16.6 - - - - E 11 20 6 11 1015.5 1015.5 -
25/12:30pm 16.2 - - - - ESE 19 30 10 16 1015.4 1015.4 -
25/12:00pm 15.9 - - - - ESE 26 30 14 16 1015.3 1015.3 -
25/11:30am 15.6 - - - - SE 28 30 15 16 1015.4 1015.4 -
25/11:00am 15.3 - - - - SE 24 28 13 15 1015.3 1015.3 -
25/10:30am 15.2 - - - - SE 24 28 13 15 1015.2 1015.2 -
25/10:00am 15.1 - - - - ESE 15 22 8 12 1015.0 1015.0 -
25/09:30am 14.6 - - - - ESE 7 11 4 6 1014.7 1014.7 -
25/09:00am 14.4 - - - - NNE 7 11 4 6 1014.6 1014.6 -
25/08:30am 13.8 - - - - N 7 11 4 6 1014.2 1014.2 -
25/08:00am 12.8 - - - - N 4 7 2 4 1013.8 1013.8 -
25/07:30am 12.1 - - - - N 9 11 5 6 1013.0 1013.0 -
25/07:00am 11.4 - - - - NNW 4 6 2 3 1012.9 1012.9 -
25/06:30am 11.8 - - - - NNW 9 11 5 6 1012.3 1012.3 -
25/06:00am 11.2 - - - - NW 7 9 4 5 1012.0 1012.0 -
25/05:30am 11.9 - - - - NNW 2 7 1 4 1011.5 1011.5 -
25/05:00am 12.0 - - - - ESE 2 4 1 2 1010.9 1010.9 -
25/04:30am 12.4 - - - - NNE 2 6 1 3 1010.2 1010.2 -
25/04:00am 12.7 - - - - ENE 4 6 2 3 1009.7 1009.7 -
25/03:30am 13.4 - - - - N 2 6 1 3 1009.4 1009.4 -
25/03:00am 14.0 - - - - N 2 4 1 2 1009.1 1009.1 -
25/02:30am 14.1 - - - - WSW 7 13 4 7 1008.8 1008.8 -
25/02:00am 15.7 - - - - SSE 6 11 3 6 1008.4 1008.4 -
25/01:30am 16.2 - - - - S 19 22 10 12 1008.5 1008.5 -
25/01:00am 16.2 - - - - SSW 9 13 5 7 1008.1 1008.1 -
25/12:30am 14.9 - - - - S 11 19 6 10 1007.9 1007.9 -
25/12:00am 13.9 - - - - SSE 2 6 1 3 1007.7 1007.7 -
 
Date/Time
EDT
Temp
°C
App
Temp
°C
Dew
Point
Rel
Hum
%
Delta-T
°C
Wind Press
QNH
hPa
Press
MSL
hPa
Rain
since 9 am
mm
Dir
 
Spd
km/h
Gust
km/h
Spd
kts
Gust
kts
24/11:30pm 14.0 - - - - NW 2 4 1 2 1007.8 1007.8 -
24/11:00pm 14.1 - - - - W 2 4 1 2 1008.0 1008.0 -
24/10:30pm 14.4 - - - - SSW 4 6 2 3 1008.4 1008.4 -
24/10:00pm 14.6 - - - - CALM 0 4 0 2 1008.5 1008.5 -
24/09:30pm 15.1 - - - - WNW 6 9 3 5 1009.1 1009.1 -
24/09:00pm 15.6 - - - - N 9 13 5 7 1008.8 1008.8 -
24/08:30pm 15.5 - - - - NNW 13 17 7 9 1009.0 1009.0 -
24/08:00pm 15.6 - - - - N 26 39 14 21 1008.2 1008.2 -
24/07:30pm 15.8 - - - - N 13 28 7 15 1008.5 1008.5 -
24/07:00pm 16.0 - - - - N 20 30 11 16 1009.6 1009.6 -
24/06:30pm 15.9 - - - - N 19 28 10 15 1010.3 1010.3 -
24/06:00pm 16.0 - - - - N 19 33 10 18 1009.8 1009.8 -
24/05:30pm 15.6 - - - - N 15 33 8 18 1010.1 1010.1 -
24/05:00pm 15.7 - - - - NNE 24 41 13 22 1010.3 1010.3 -
24/04:30pm 15.4 - - - - NNE 22 41 12 22 1010.6 1010.6 -
24/04:00pm 15.1 - - - - N 17 33 9 18 1011.3 1011.3 -
24/03:30pm 14.9 - - - - N 17 32 9 17 1012.0 1012.0 -
24/03:00pm 14.9 - - - - N 15 28 8 15 1012.7 1012.7 -
24/02:30pm 14.7 - - - - N 19 32 10 17 1013.3 1013.3 -
24/02:00pm 14.5 - - - - N 15 30 8 16 1013.9 1013.9 -
24/01:30pm 14.2 - - - - N 13 24 7 13 1014.7 1014.7 -
24/01:00pm 13.9 - - - - N 9 20 5 11 1015.3 1015.3 -
24/12:30pm 13.8 - - - - N 20 35 11 19 1015.8 1015.8 -
24/12:00pm 13.8 - - - - N 15 30 8 16 1016.5 1016.5 -
24/11:30am 13.7 - - - - N 20 33 11 18 1017.0 1017.0 -
24/11:00am 13.3 - - - - N 15 30 8 16 1017.4 1017.4 -
24/10:30am 13.1 - - - - N 17 35 9 19 1018.0 1018.0 -
24/10:00am 13.0 - - - - N 19 37 10 20 1018.3 1018.3 -
24/09:30am 13.1 - - - - N 22 39 12 21 1018.9 1018.9 -
24/09:00am 13.2 - - - - N 20 39 11 21 1019.6 1019.6 -
24/08:30am 13.2 - - - - N 19 35 10 19 1019.9 1019.9 -
24/08:00am 13.2 - - - - N 19 33 10 18 1020.4 1020.4 -
24/07:30am 13.0 - - - - N 19 32 10 17 1020.4 1020.4 -
24/07:00am 12.8 - - - - N 17 33 9 18 1020.8 1020.8 -
24/06:30am 12.5 - - - - N 13 28 7 15 1021.0 1021.0 -
24/06:00am 12.3 - - - - NNE 19 35 10 19 1021.1 1021.1 -
24/05:30am 12.2 - - - - N 13 26 7 14 1021.2 1021.2 -
24/05:00am 12.2 - - - - N 19 32 10 17 1021.5 1021.5 -
24/04:30am 12.2 - - - - N 15 28 8 15 1021.8 1021.8 -
24/04:00am 11.9 - - - - N 7 11 4 6 1022.4 1022.4 -
24/03:30am 11.9 - - - - N 9 13 5 7 1022.7 1022.7 -
24/03:00am 11.9 - - - - N 11 19 6 10 1023.0 1023.0 -
24/02:30am 11.9 - - - - N 17 30 9 16 1023.5 1023.5 -
24/02:00am 11.8 - - - - N 11 20 6 11 1023.9 1023.9 -
24/01:30am 11.7 - - - - N 9 17 5 9 1024.3 1024.3 -

Other Formats:

Comma delimited format used in spreadsheet applications
http://www.bom.gov.au/fwo/IDT60801/IDT60801.95987.axf

JavaScript Object Notation format (JSON) in row-major order
http://www.bom.gov.au/fwo/IDT60801/IDT60801.95987.json